Terminal Aerodrome Forecast
Issued by NWS Burlington, VT

Home | Current Version | Previous Version | Text Only | Print | Product List | Glossary On
Versions: 1 2 3 4 5 6 7 8 9 10 11 12
000
FTUS41 KBTV 280540
TAFBTV
TAF
KBTV 280540Z 2806/2906 19015G25KT P6SM VCSH OVC050
     FM280800 20013G23KT 6SM -SHRA SCT035 OVC045
     FM281200 25010G20KT P6SM OVC035
     FM281700 29012G22KT P6SM BKN035
     FM290300 32007KT P6SM FEW040 BKN080=

USA.gov is the U.S. government's official web portal to all federal, state and local government web resources and services.